Portada
METAR-TAF:

METAR-TAF

Aeropuertos :

Aeropuerto Cherif Al Idrissi

Alhucemas, Marruecos

latitud: 35-11N, longitud: 003-51W, altitud: 27 m

Observación

El informe se hizo hace 1 hora y 7 minutos, a las 06:00 UTC
Viento 2 kt del este-sureste
Temperatura 15°C
Humedad 77%
Presión 1014 hPa
Visibilidad 10 km o más
sin nubes por debajo de 1500 m y sin presencia de cumulonimbus.

METAR: GMTA 250600Z 12002KT CAVOK 15/11 Q1014 NOSIG

Hora: 07:07 (07:07 UTC)

Pronóstico

El informe se hizo hace 2 horas y 7 minutos, a las 05:00 UTC
Pronóstico válido del 25 a las 06 UTC al 26 a las 12 UTC
Viento 2 kt con dirección variable
Visibilidad 10 km o más
sin nubes por debajo de 1500 m y sin presencia de cumulonimbus.
Evolucionando progresivamente
del 25 a las 11 UTC al 25 a las 13 UTC
Viento 10 kt del norte-noreste

TAF: GMTA 250500Z 2506/2612 VRB02KT CAVOK BECMG 2511/2513 02010KT

Observaciones y pronósticos meteorológicos de más de 4000 aeropuertos (mensajes METAR y TAF).

Los puntos amarillos y rojos representan las estaciones disponibles.

Ponga el ratón en el punto deseado para ver el nombre de la estación.

Haga clic para ver las observaciones y los pronósticos meteorológicos.

Para cambiar el mapa : haga clic en los botones verdes con una cruz de color negro para hacer un zoom, en el botón verde con un guión para alejar o en las flechas verdes para mapas adyacentes.


METAR-TAF: